.
WxDataArchive / Data Records for 2012-08-10
2012-08-09 August 2012 2012-08-11

Data Records for Friday, 10 August 2012

Time	Temp	Chill	HIndex	Humid	Dewpt	 Wind 	HiWind	WindDir	Rain 	Barom 
-----	----	-----	------	-----	-----	------	------	-------	-----	----- 
00:00	65.5	65.5	65.5	96	64.3	0	1	112	0.01	29.740 
00:05	65.5	65.5	65.5	96	64.3	0	0	---	0.00	29.740 
00:10	65.5	65.5	65.5	96	64.3	0	2	112	0.00	29.740 
00:15	65.3	65.3	65.3	96	64.1	0	0	---	0.00	29.735 
00:20	65.3	65.3	65.3	96	64.1	0	0	---	0.00	29.735 
00:25	65.2	65.2	65.2	96	64.0	0	0	---	0.00	29.735 
00:30	65.2	65.2	65.2	96	64.0	0	0	---	0.00	29.736 
00:35	65.2	65.2	65.2	96	64.0	0	1	112	0.00	29.736 
00:40	65.2	65.2	65.2	96	64.0	0	1	112	0.00	29.736 
00:45	65.2	65.2	65.2	96	64.0	0	1	112	0.00	29.744 
00:50	65.2	65.2	65.2	96	64.0	0	2	112	0.00	29.744 
00:55	65.0	65.0	65.0	96	63.8	1	4	112	0.00	29.744 
01:00	65.0	65.0	65.0	96	63.8	1	3	112	0.00	29.739 
01:05	65.0	65.0	65.0	96	63.8	0	2	112	0.00	29.739 
01:10	64.8	64.8	64.8	96	63.6	0	2	112	0.00	29.739 
01:15	64.8	64.8	64.8	96	63.6	1	3	112	0.00	29.734 
01:20	64.7	64.7	64.7	96	63.5	0	2	112	0.00	29.734 
01:25	64.5	64.5	64.5	96	63.3	0	2	112	0.00	29.734 
01:30	64.5	64.5	64.5	96	63.3	0	2	112	0.00	29.733 
01:35	64.5	64.5	64.5	96	63.3	0	2	112	0.00	29.733 
01:40	64.5	64.5	64.5	96	63.3	0	2	112	0.00	29.733 
01:45	64.3	64.3	64.3	96	63.1	1	3	112	0.00	29.724 
01:50	64.3	64.3	64.3	96	63.1	0	3	112	0.00	29.724 
01:55	64.3	64.3	64.3	96	63.1	0	0	---	0.00	29.724 
02:00	64.2	64.2	64.2	96	63.0	0	0	---	0.00	29.728 
02:05	64.2	64.2	64.2	96	63.0	0	0	---	0.00	29.728 
02:10	64.2	64.2	64.2	96	63.0	0	0	---	0.00	29.728 
02:15	64.2	64.2	64.2	96	63.0	0	0	---	0.00	29.722 
02:20	64.2	64.2	64.2	96	63.0	0	1	112	0.00	29.722 
02:25	64.2	64.2	64.2	96	63.0	0	0	---	0.00	29.722 
02:30	64.3	64.3	64.3	96	63.1	0	0	---	0.00	29.718 
02:35	64.2	64.2	64.2	96	63.0	0	0	---	0.00	29.718 
02:40	64.2	64.2	64.2	96	63.0	0	0	---	0.00	29.718 
02:45	64.2	64.2	64.2	96	63.0	0	0	---	0.00	29.707 
02:50	64.2	64.2	64.2	96	63.0	0	0	---	0.00	29.707 
02:55	64.2	64.2	64.2	96	63.0	0	2	112	0.00	29.707 
03:00	64.2	64.2	64.2	96	63.0	0	3	112	0.00	29.705 
03:05	64.2	64.2	64.2	96	63.0	0	0	---	0.00	29.705 
03:10	64.2	64.2	64.2	96	63.0	0	1	112	0.00	29.705 
03:15	64.0	64.0	64.0	96	62.8	0	0	---	0.00	29.704 
03:20	63.9	63.9	63.9	96	62.7	0	3	112	0.00	29.704 
03:25	63.7	63.7	63.7	96	62.5	0	1	112	0.00	29.704 
03:30	63.7	63.7	63.7	96	62.5	0	1	112	0.00	29.699 
03:35	63.7	63.7	63.7	96	62.5	0	1	112	0.00	29.699 
03:40	63.5	63.5	63.5	96	62.3	0	1	112	0.00	29.699 
03:45	63.5	63.5	63.5	96	62.3	0	3	112	0.00	29.697 
03:50	63.5	63.5	63.5	96	62.3	0	2	112	0.00	29.697 
03:55	63.5	63.5	63.5	96	62.3	0	1	112	0.00	29.697 
04:00	63.5	63.5	63.5	96	62.3	0	2	112	0.00	29.700 
04:05	63.4	63.4	63.4	96	62.2	0	1	112	0.00	29.700 
04:10	63.4	63.4	63.4	96	62.2	0	2	112	0.00	29.700 
04:15	63.2	63.2	63.2	96	62.0	0	1	112	0.00	29.703 
04:20	63.2	63.2	63.2	96	62.0	0	1	112	0.00	29.703 
04:25	63.2	63.2	63.2	96	62.0	0	1	112	0.00	29.703 
04:30	63.2	63.2	63.2	96	62.0	0	2	112	0.00	29.705 
04:35	63.2	63.2	63.2	96	62.0	0	0	---	0.00	29.705 
04:40	63.2	63.2	63.2	96	62.0	0	0	---	0.00	29.705 
04:45	63.4	63.4	63.4	96	62.2	0	0	---	0.00	29.707 
04:50	63.4	63.4	63.4	96	62.2	0	2	112	0.00	29.707 
04:55	63.2	63.2	63.2	96	62.0	0	1	112	0.00	29.707 
05:00	63.2	63.2	63.2	96	62.0	0	1	112	0.00	29.708 
05:05	63.2	63.2	63.2	96	62.0	0	1	112	0.00	29.708 
05:10	63.1	63.1	63.1	96	61.9	0	1	112	0.00	29.708 
05:15	63.1	63.1	63.1	97	62.2	0	2	112	0.00	29.709 
05:20	62.9	62.9	62.9	96	61.7	0	3	112	0.00	29.709 
05:25	62.7	62.7	62.7	96	61.5	0	1	112	0.00	29.709 
05:30	62.6	62.6	62.6	96	61.4	0	1	112	0.00	29.708 
05:35	62.4	62.4	62.4	96	61.2	0	0	---	0.00	29.708 
05:40	62.3	62.3	62.3	96	61.1	0	3	112	0.00	29.708 
05:45	62.1	62.1	62.1	96	60.9	0	2	112	0.00	29.702 
05:50	62.0	62.0	62.0	96	60.8	0	2	112	0.00	29.702 
05:55	62.0	62.0	62.0	96	60.8	0	3	112	0.00	29.702 
06:00	61.8	61.8	61.8	96	60.6	1	2	112	0.00	29.703 
06:05	61.6	61.6	61.6	96	60.4	1	4	112	0.00	29.703 
06:10	61.6	61.6	61.6	96	60.4	0	2	135	0.00	29.703 
06:15	61.6	61.6	61.6	96	60.4	0	1	135	0.00	29.707 
06:20	61.5	61.5	61.5	96	60.3	1	2	135	0.00	29.707 
06:25	61.3	61.3	61.3	96	60.1	0	1	135	0.00	29.707 
06:30	61.3	61.3	61.3	96	60.1	0	2	135	0.00	29.712 
06:35	61.3	61.3	61.3	96	60.1	0	1	135	0.00	29.712 
06:40	61.3	61.3	61.3	96	60.1	0	3	135	0.00	29.712 
06:45	61.3	61.3	61.3	96	60.1	0	2	248	0.00	29.721 
06:50	61.3	61.3	61.3	96	60.1	0	2	248	0.00	29.721 
06:55	61.3	61.3	61.3	96	60.1	1	3	248	0.00	29.721 
07:00	61.3	61.3	61.3	96	60.1	1	2	248	0.00	29.719 
07:05	61.3	61.3	61.3	96	60.1	1	3	292	0.00	29.719 
07:10	61.3	61.3	61.3	96	60.1	0	1	292	0.00	29.719 
07:15	61.3	61.3	61.3	96	60.1	0	1	292	0.00	29.724 
07:20	61.3	61.3	61.3	96	60.1	0	3	292	0.00	29.724 
07:25	61.5	61.5	61.5	96	60.3	0	2	292	0.00	29.724 
07:30	61.5	61.5	61.5	96	60.3	1	3	292	0.00	29.724 
07:35	61.6	61.6	61.6	96	60.4	0	2	292	0.00	29.724 
07:40	61.6	61.6	61.6	96	60.4	0	2	292	0.00	29.724 
07:45	61.8	61.8	61.8	96	60.6	1	4	292	0.00	29.724 
07:50	61.8	61.8	61.8	96	60.6	1	3	292	0.00	29.724 
07:55	61.8	61.8	61.8	96	60.6	1	3	292	0.00	29.724 
08:00	61.8	61.8	61.8	96	60.6	1	4	292	0.00	29.726 
08:05	61.8	61.8	61.8	96	60.6	1	3	292	0.00	29.726 
08:10	61.8	61.8	61.8	95	60.3	1	4	292	0.00	29.726 
08:15	61.8	61.8	61.8	95	60.3	1	2	292	0.00	29.728 
08:20	62.0	62.0	62.0	95	60.5	0	2	292	0.00	29.728 
08:25	62.0	62.0	62.0	95	60.5	0	2	292	0.00	29.728 
08:30	62.1	62.1	62.1	95	60.6	1	2	292	0.00	29.727 
08:35	62.1	62.1	62.1	95	60.6	1	3	292	0.00	29.727 
08:40	62.3	62.3	62.3	95	60.8	1	3	292	0.00	29.727 
08:45	62.3	62.3	62.3	95	60.8	1	4	292	0.00	29.727 
08:50	62.4	62.4	62.4	95	60.9	1	3	292	0.00	29.727 
08:55	62.6	62.6	62.6	94	60.8	1	4	292	0.00	29.727 
09:00	62.7	62.7	62.7	94	60.9	2	4	292	0.00	29.728 
09:05	62.9	62.9	62.9	93	60.8	1	5	292	0.00	29.728 
09:10	63.2	63.2	63.2	93	61.1	1	5	292	0.00	29.728 
09:15	63.4	63.4	63.4	92	61.0	1	3	292	0.00	29.732 
09:20	63.4	63.4	63.4	91	60.7	2	5	292	0.00	29.732 
09:25	63.5	63.5	63.5	90	60.5	1	3	292	0.00	29.732 
09:30	63.7	63.7	63.7	90	60.7	1	3	292	0.00	29.739 
09:35	63.7	63.7	63.7	89	60.4	2	4	292	0.00	29.739 
09:40	63.7	63.7	63.7	88	60.1	1	3	315	0.00	29.739 
09:45	63.9	63.9	63.9	88	60.3	1	4	292	0.00	29.739 
09:50	64.0	64.0	64.0	87	60.0	0	2	338	0.00	29.739 
09:55	64.3	64.3	64.3	88	60.7	0	2	338	0.00	29.739 
10:00	64.3	64.3	64.3	87	60.3	1	3	270	0.00	29.732 
10:05	64.3	64.3	64.3	86	60.0	2	3	292	0.00	29.732 
10:10	64.2	64.2	64.2	85	59.6	2	4	292	0.00	29.732 
10:15	64.3	64.3	64.3	85	59.7	1	4	315	0.00	29.735 
10:20	64.3	64.3	64.3	84	59.4	2	5	315	0.00	29.735 
10:25	64.3	64.3	64.3	84	59.4	1	4	315	0.00	29.735 
10:30	64.3	64.3	64.3	84	59.4	2	5	292	0.00	29.740 
10:35	64.3	64.3	64.3	84	59.4	2	4	270	0.00	29.740 
10:40	64.5	64.5	64.5	84	59.6	2	4	292	0.00	29.740 
10:45	64.7	64.7	64.7	83	59.4	3	6	292	0.00	29.734 
10:50	65.3	65.3	65.3	82	59.7	2	4	315	0.00	29.734 
10:55	65.6	65.6	65.6	80	59.3	3	6	315	0.00	29.734 
11:00	66.0	66.0	66.0	80	59.6	3	7	270	0.00	29.729 
11:05	66.4	66.4	66.4	78	59.3	3	7	270	0.00	29.729 
11:10	66.9	66.9	66.9	77	59.4	3	9	315	0.00	29.729 
11:15	67.3	67.3	67.3	78	60.2	2	4	292	0.00	29.727 
11:20	67.3	67.3	67.3	76	59.5	3	5	270	0.00	29.727 
11:25	67.3	67.3	67.3	77	59.8	3	5	292	0.00	29.727 
11:30	66.8	66.8	66.8	76	59.0	3	8	270	0.00	29.728 
11:35	66.8	66.8	66.8	77	59.3	2	5	315	0.00	29.728 
11:40	66.9	66.9	66.9	76	59.1	2	6	315	0.00	29.728 
11:45	66.8	66.8	66.8	77	59.3	2	5	315	0.00	29.736 
11:50	66.6	66.6	66.6	76	58.8	3	7	270	0.00	29.736 
11:55	66.1	66.1	66.1	77	58.7	3	10	315	0.00	29.736 
12:00	66.0	66.0	66.0	77	58.6	2	5	315	0.00	29.736 
12:05	66.0	66.0	66.0	77	58.6	2	5	315	0.00	29.736 
12:10	65.8	65.8	65.8	78	58.7	3	6	315	0.00	29.736 
12:15	66.0	66.0	66.0	78	58.9	3	6	292	0.00	29.739 
12:20	66.3	66.3	66.3	76	58.5	3	7	292	0.00	29.739 
12:25	66.4	66.4	66.4	76	58.6	3	5	292	0.00	29.739 
12:30	66.1	66.1	66.1	76	58.3	2	10	315	0.00	29.740 
12:35	65.8	65.8	65.8	76	58.0	2	6	315	0.00	29.740 
12:40	65.5	65.5	65.5	77	58.1	2	6	315	0.00	29.740 
12:45	65.0	65.0	65.0	78	58.0	3	5	315	0.00	29.742 
12:50	64.3	64.3	64.3	79	57.6	3	7	270	0.00	29.742 
12:55	63.9	63.9	63.9	82	58.3	2	5	292	0.00	29.742 
13:00	63.7	63.7	63.7	84	58.8	2	6	292	0.00	29.745 
13:05	63.5	63.5	63.5	84	58.6	2	4	270	0.00	29.745 
13:10	63.7	63.7	63.7	84	58.8	2	7	270	0.00	29.745 
13:15	63.4	63.4	63.4	84	58.5	3	7	270	0.00	29.754 
13:20	63.2	63.2	63.2	87	59.3	2	5	270	0.00	29.754 
13:25	63.1	63.1	63.1	87	59.2	2	4	270	0.00	29.754 
13:30	63.2	63.2	63.2	87	59.3	3	5	270	0.00	29.749 
13:35	63.5	63.5	63.5	85	58.9	3	9	292	0.00	29.749 
13:40	63.9	63.9	63.9	84	59.0	2	6	315	0.00	29.749 
13:45	64.3	64.3	64.3	81	58.3	2	6	292	0.00	29.746 
13:50	64.8	64.8	64.8	78	57.8	2	7	292	0.00	29.746 
13:55	65.3	65.3	65.3	77	57.9	2	6	270	0.00	29.746 
14:00	64.8	64.8	64.8	76	57.0	4	9	315	0.00	29.746 
14:05	64.3	64.3	64.3	77	56.9	3	6	270	0.00	29.746 
14:10	64.7	64.7	64.7	77	57.3	2	5	270	0.00	29.746 
14:15	64.8	64.8	64.8	74	56.3	4	7	292	0.00	29.748 
14:20	66.0	66.0	66.0	76	58.2	2	6	292	0.00	29.748 
14:25	65.6	65.6	65.6	73	56.7	3	7	292	0.00	29.748 
14:30	64.5	64.5	64.5	74	56.0	3	7	292	0.00	29.751 
14:35	63.9	63.9	63.9	75	55.8	3	6	292	0.00	29.751 
14:40	63.7	63.7	63.7	76	56.0	2	6	292	0.00	29.751 
14:45	63.7	63.7	63.7	76	56.0	3	7	315	0.00	29.757 
14:50	63.9	63.9	63.9	74	55.4	3	7	292	0.00	29.757 
14:55	63.7	63.7	63.7	73	54.9	3	7	292	0.00	29.757 
15:00	63.4	63.4	63.4	74	55.0	3	7	315	0.00	29.761 
15:05	63.4	63.4	63.4	75	55.3	3	7	292	0.00	29.761 
15:10	63.4	63.4	63.4	75	55.3	2	6	292	0.00	29.761 
15:15	63.2	63.2	63.2	74	54.8	3	7	315	0.00	29.765 
15:20	63.2	63.2	63.2	75	55.1	1	4	248	0.00	29.765 
15:25	62.9	62.9	62.9	76	55.2	3	6	315	0.00	29.765 
15:30	62.4	62.4	62.4	78	55.4	2	6	292	0.00	29.765 
15:35	62.1	62.1	62.1	79	55.5	1	5	315	0.00	29.765 
15:40	62.3	62.3	62.3	78	55.3	3	10	315	0.00	29.765 
15:45	62.6	62.6	62.6	77	55.3	3	9	315	0.00	29.765 
15:50	62.7	62.7	62.7	77	55.4	2	6	270	0.00	29.765 
15:55	62.6	62.6	62.6	76	54.9	4	9	292	0.00	29.765 
16:00	62.6	62.6	62.6	75	54.6	3	9	270	0.00	29.767 
16:05	62.6	62.6	62.6	76	54.9	3	6	292	0.00	29.767 
16:10	62.3	62.3	62.3	75	54.3	5	10	315	0.00	29.767 
16:15	62.4	62.4	62.4	76	54.7	3	6	292	0.00	29.777 
16:20	62.4	62.4	62.4	76	54.7	4	8	270	0.00	29.777 
16:25	61.8	61.8	61.8	77	54.5	4	6	270	0.00	29.777 
16:30	61.3	61.3	61.3	78	54.4	4	9	292	0.00	29.782 
16:35	61.0	61.0	61.0	79	54.4	3	7	315	0.00	29.782 
16:40	61.0	61.0	61.0	80	54.8	3	7	270	0.00	29.782 
16:45	60.7	60.7	60.7	79	54.1	4	7	270	0.00	29.790 
16:50	60.2	60.2	60.2	79	53.7	4	7	270	0.00	29.790 
16:55	59.9	59.9	59.9	80	53.7	5	7	270	0.00	29.790 
17:00	59.8	59.8	59.8	80	53.6	3	6	292	0.00	29.794 
17:05	59.8	59.8	59.8	80	53.6	3	8	315	0.00	29.794 
17:10	59.8	59.8	59.8	80	53.6	3	7	292	0.00	29.794 
17:15	59.6	59.6	59.6	80	53.4	2	7	315	0.00	29.794 
17:20	59.6	59.6	59.6	80	53.4	2	5	292	0.00	29.794 
17:25	59.6	59.6	59.6	80	53.4	2	5	292	0.00	29.794 
17:30	59.8	59.8	59.8	81	54.0	2	7	270	0.00	29.792 
17:35	59.8	59.8	59.8	80	53.6	4	9	270	0.00	29.792 
17:40	59.9	59.9	59.9	81	54.1	3	6	248	0.00	29.792 
17:45	59.8	59.8	59.8	81	54.0	3	6	270	0.00	29.794 
17:50	59.6	59.6	59.6	81	53.8	3	10	292	0.00	29.794 
17:55	59.5	59.5	59.5	82	54.0	2	4	292	0.00	29.794 
18:00	59.5	59.5	59.5	82	54.0	2	5	292	0.00	29.796 
18:05	59.2	59.2	59.2	82	53.7	3	7	270	0.00	29.796 
18:10	59.0	59.0	59.0	82	53.5	3	6	315	0.00	29.796 
18:15	58.9	58.9	58.9	82	53.4	3	7	270	0.00	29.798 
18:20	58.9	58.9	58.9	83	53.7	3	6	270	0.00	29.798 
18:25	58.6	58.6	58.6	83	53.4	3	7	270	0.00	29.798 
18:30	58.4	58.4	58.4	83	53.3	4	9	270	0.00	29.800 
18:35	58.3	58.3	58.3	83	53.2	3	7	315	0.00	29.800 
18:40	58.3	58.3	58.3	83	53.2	4	7	270	0.00	29.800 
18:45	58.3	58.3	58.3	83	53.2	3	6	270	0.00	29.800 
18:50	58.1	58.1	58.1	83	53.0	3	7	270	0.00	29.800 
18:55	58.1	58.1	58.1	83	53.0	3	6	315	0.00	29.800 
19:00	58.1	58.1	58.1	83	53.0	3	7	315	0.00	29.800 
19:05	58.0	58.0	58.0	83	52.9	3	7	315	0.00	29.800 
19:10	58.0	58.0	58.0	84	53.2	3	6	270	0.00	29.800 
19:15	58.0	58.0	58.0	84	53.2	4	7	270	0.00	29.801 
19:20	57.8	57.8	57.8	84	53.0	3	7	270	0.00	29.801 
19:25	57.8	57.8	57.8	84	53.0	2	6	292	0.00	29.801 
19:30	57.8	57.8	57.8	84	53.0	3	5	270	0.00	29.804 
19:35	57.8	57.8	57.8	84	53.0	3	7	270	0.00	29.804 
19:40	57.8	57.8	57.8	85	53.3	3	7	315	0.00	29.804 
19:45	57.6	57.6	57.6	85	53.1	3	7	270	0.00	29.805 
19:50	57.6	57.6	57.6	85	53.1	3	6	292	0.00	29.805 
19:55	57.6	57.6	57.6	85	53.1	3	6	270	0.00	29.805 
20:00	57.5	57.5	57.5	86	53.3	3	5	315	0.00	29.809 
20:05	57.3	57.3	57.3	87	53.5	3	5	292	0.00	29.809 
20:10	57.0	57.0	57.0	88	53.5	3	6	315	0.00	29.809 
20:15	56.9	56.9	56.9	89	53.7	3	5	315	0.00	29.810 
20:20	56.9	56.9	56.9	89	53.7	3	6	270	0.00	29.810 
20:25	56.9	56.9	56.9	90	54.0	2	5	315	0.00	29.810 
20:30	56.7	56.7	56.7	90	53.8	2	4	292	0.00	29.813 
20:35	56.7	56.7	56.7	90	53.8	2	5	292	0.00	29.813 
20:40	56.9	56.9	56.9	90	54.0	3	5	270	0.00	29.813 
20:45	56.9	56.9	56.9	90	54.0	3	7	270	0.00	29.813 
20:50	57.0	57.0	57.0	90	54.1	2	7	315	0.00	29.813 
20:55	57.0	57.0	57.0	89	53.8	3	5	315	0.00	29.813 
21:00	57.2	57.2	57.2	89	54.0	2	4	270	0.00	29.813 
21:05	57.3	57.3	57.3	89	54.1	3	7	270	0.00	29.813 
21:10	57.3	57.3	57.3	89	54.1	2	5	292	0.00	29.813 
21:15	57.5	57.5	57.5	88	54.0	2	5	315	0.00	29.813 
21:20	57.5	57.5	57.5	88	54.0	2	5	315	0.00	29.813 
21:25	57.5	57.5	57.5	88	54.0	2	5	315	0.00	29.813 
21:30	57.5	57.5	57.5	89	54.3	2	5	315	0.00	29.815 
21:35	57.6	57.6	57.6	89	54.4	2	5	292	0.00	29.815 
21:40	57.6	57.6	57.6	89	54.4	2	5	292	0.00	29.815 
21:45	57.8	57.8	57.8	88	54.3	2	7	315	0.00	29.817 
21:50	57.8	57.8	57.8	88	54.3	2	5	315	0.00	29.817 
21:55	58.0	58.0	58.0	88	54.5	2	4	270	0.00	29.817 
22:00	58.0	58.0	58.0	88	54.5	2	6	292	0.00	29.822 
22:05	58.1	58.1	58.1	88	54.6	2	4	292	0.00	29.822 
22:10	58.1	58.1	58.1	88	54.6	2	4	292	0.00	29.822 
22:15	58.1	58.1	58.1	88	54.6	2	6	292	0.00	29.823 
22:20	58.3	58.3	58.3	87	54.4	1	4	315	0.00	29.823 
22:25	58.3	58.3	58.3	88	54.8	1	6	270	0.00	29.823 
22:30	58.4	58.4	58.4	88	54.9	2	4	292	0.00	29.824 
22:35	58.4	58.4	58.4	88	54.9	2	4	292	0.00	29.824 
22:40	58.6	58.6	58.6	88	55.1	2	7	270	0.00	29.824 
22:45	58.6	58.6	58.6	88	55.1	2	4	270	0.00	29.820 
22:50	58.7	58.7	58.7	88	55.2	1	4	338	0.00	29.820 
22:55	58.7	58.7	58.7	88	55.2	1	3	315	0.00	29.820 
23:00	58.9	58.9	58.9	88	55.3	1	4	270	0.00	29.815 
23:05	58.9	58.9	58.9	88	55.3	1	3	338	0.00	29.815 
23:10	59.0	59.0	59.0	88	55.4	1	4	292	0.00	29.815 
23:15	59.0	59.0	59.0	88	55.4	2	5	270	0.00	29.818 
23:20	59.2	59.2	59.2	88	55.6	1	4	270	0.00	29.818 
23:25	59.3	59.3	59.3	88	55.7	1	4	270	0.00	29.818 
23:30	59.3	59.3	59.3	88	55.7	1	3	270	0.00	29.822 
23:35	59.5	59.5	59.5	88	55.9	2	4	315	0.00	29.822 
23:40	59.5	59.5	59.5	88	55.9	1	6	292	0.00	29.822 
23:45	59.5	59.5	59.5	88	55.9	3	5	292	0.00	29.821 
23:50	59.6	59.6	59.6	88	56.0	1	4	292	0.00	29.821 
23:55	59.6	59.6	59.6	88	56.0	1	3	292	0.00	29.821 

CoCoRaHS
IN-AL-39
A2 Web Hosting
Creative Commons License
GoDaddy
search engine by freefind advanced

loaded 2018-11-20 08:51:12 • last modified 2010-11-18 10:43:29
Privacy PolicyDisclaimer
• wx.awcolley.com is powered by PmWiki v.2002016 •
• all content (unless otherwise noted) © 2018 A W Colley